createdAt,value
2023-04-01T00:00:43.691Z,4.2
2023-04-01T00:05:43.685Z,2.6
2023-04-01T00:10:43.686Z,2.1
2023-04-01T00:15:43.710Z,3.7
2023-04-01T00:20:43.696Z,3.7
2023-04-01T00:25:43.700Z,3.7
2023-04-01T00:30:43.710Z,1.9
2023-04-01T00:35:43.715Z,4.0
2023-04-01T00:40:43.711Z,2.7
2023-04-01T00:45:43.732Z,3.8
2023-04-01T00:50:43.718Z,1.8
2023-04-01T01:00:43.753Z,2.0
2023-04-01T01:05:49.618Z,1.8
2023-04-01T01:10:43.723Z,3.4
2023-04-01T01:15:43.738Z,2.1
2023-04-01T01:20:43.730Z,3.0
2023-04-01T01:25:43.743Z,3.2
2023-04-01T01:30:43.781Z,3.8
2023-04-01T01:35:43.905Z,3.5
2023-04-01T01:40:43.760Z,4.1
2023-04-01T01:45:43.749Z,3.6
2023-04-01T01:50:43.777Z,3.3
2023-04-01T01:55:43.756Z,3.8
2023-04-01T02:00:43.745Z,3.1
2023-04-01T02:05:43.750Z,3.5
2023-04-01T02:10:43.786Z,3.8
2023-04-01T02:15:43.904Z,4.6
2023-04-01T02:20:43.760Z,5.1
2023-04-01T02:25:43.770Z,4.5
2023-04-01T02:30:43.771Z,4.6
2023-04-01T02:35:43.804Z,5.3
2023-04-01T02:40:43.786Z,6.5
2023-04-01T02:45:43.781Z,6.3
2023-04-01T02:50:43.783Z,5.8
2023-04-01T02:55:43.782Z,5.3
2023-04-01T03:00:43.825Z,4.6
2023-04-01T03:05:43.791Z,6.2
2023-04-01T03:10:43.794Z,5.8
2023-04-01T03:15:43.907Z,6.6
2023-04-01T03:20:43.799Z,8.7
2023-04-01T03:25:43.805Z,9.1
2023-04-01T03:30:43.830Z,7.4
2023-04-01T03:35:43.806Z,7.2
2023-04-01T03:40:43.802Z,7.6
2023-04-01T03:45:43.802Z,8.1
2023-04-01T03:50:43.919Z,10.7
2023-04-01T03:55:43.911Z,9.1
2023-04-01T04:00:43.930Z,9.2
2023-04-01T04:05:43.921Z,11.1
2023-04-01T04:10:43.934Z,8.3
2023-04-01T04:15:43.837Z,8.9
2023-04-01T04:20:43.824Z,7.2
2023-04-01T04:25:43.841Z,7.8
2023-04-01T04:30:43.931Z,6.1
2023-04-01T04:35:43.933Z,6.1
2023-04-01T04:45:43.846Z,4.1
2023-04-01T04:55:43.847Z,5.0
2023-04-01T05:00:43.950Z,4.4
2023-04-01T05:05:43.953Z,3.9
2023-04-01T05:10:43.854Z,3.6
2023-04-01T05:15:44.005Z,4.0
2023-04-01T05:20:43.962Z,4.3
2023-04-01T05:25:43.973Z,4.1
2023-04-01T05:30:44.005Z,4.2
2023-04-01T05:35:44.018Z,6.3
2023-04-01T05:40:44.033Z,5.5
2023-04-01T05:45:44.004Z,6.3
2023-04-01T05:50:43.986Z,4.8
2023-04-01T05:55:43.990Z,7.0
2023-04-01T06:00:44.012Z,6.5
2023-04-01T06:05:43.988Z,7.4
2023-04-01T06:10:44.014Z,6.8
2023-04-01T06:15:44.008Z,7.5
2023-04-01T06:20:43.912Z,8.3
2023-04-01T06:25:43.916Z,9.5
2023-04-01T06:30:43.926Z,11.6
2023-04-01T06:35:43.982Z,11.2
2023-04-01T06:40:43.908Z,11.6
2023-04-01T06:45:44.033Z,11.9
2023-04-01T06:50:43.919Z,12.4
2023-04-01T06:55:44.022Z,12.2
2023-04-01T07:00:44.018Z,12.1
2023-04-01T07:05:44.252Z,11.8
2023-04-01T07:10:43.974Z,12.0
2023-04-01T07:15:43.931Z,11.5
2023-04-01T07:20:43.942Z,10.2
2023-04-01T07:25:43.924Z,11.8
2023-04-01T07:30:43.962Z,12.9
2023-04-01T07:35:43.967Z,12.1
2023-04-01T07:40:43.962Z,12.7
2023-04-01T07:45:43.946Z,13.6
2023-04-01T07:50:43.954Z,14.9
2023-04-01T07:55:43.961Z,11.3
2023-04-01T08:00:43.955Z,12.4
2023-04-01T08:05:45.567Z,12.0
2023-04-01T08:10:43.966Z,13.4
2023-04-01T08:15:43.975Z,11.9
2023-04-01T08:20:43.971Z,12.5
2023-04-01T08:25:43.977Z,11.2
2023-04-01T08:30:43.968Z,10.1
2023-04-01T08:35:44.374Z,7.8
2023-04-01T08:40:43.997Z,7.7
2023-04-01T08:45:44.023Z,8.1
2023-04-01T08:50:44.213Z,6.6
2023-04-01T08:55:44.001Z,8.2
2023-04-01T09:00:44.005Z,7.4
2023-04-01T09:05:43.997Z,9.5
2023-04-01T09:10:44.005Z,9.8
2023-04-01T09:15:44.035Z,8.6
2023-04-01T09:20:44.022Z,9.7
2023-04-01T09:25:44.014Z,10.6
2023-04-01T09:30:44.023Z,10.2
2023-04-01T09:35:44.030Z,11.3
2023-04-01T09:40:44.023Z,10.3
2023-04-01T09:45:44.032Z,12.2
2023-04-01T09:50:44.026Z,12.8
2023-04-01T09:55:44.126Z,13.1
2023-04-01T10:00:44.029Z,11.8
2023-04-01T10:05:44.128Z,13.0
2023-04-01T10:10:44.068Z,12.6
2023-04-01T10:15:44.357Z,12.0
2023-04-01T10:20:44.062Z,9.9
2023-04-01T10:25:44.057Z,11.4
2023-04-01T10:30:44.060Z,9.0
2023-04-01T10:35:44.092Z,7.7
2023-04-01T10:40:44.064Z,7.9
2023-04-01T10:45:44.087Z,8.7
2023-04-01T10:50:44.068Z,8.6
2023-04-01T10:55:44.055Z,9.5
2023-04-01T11:00:44.058Z,10.1
2023-04-01T11:05:44.051Z,9.5
2023-04-01T11:10:44.081Z,8.8
2023-04-01T11:15:44.116Z,8.7
2023-04-01T11:20:44.077Z,8.0
2023-04-01T11:25:44.145Z,8.4
2023-04-01T11:30:44.076Z,7.7
2023-04-01T11:35:44.122Z,7.3
2023-04-01T11:40:44.104Z,6.0
2023-04-01T11:45:44.101Z,5.3
2023-04-01T11:50:44.091Z,5.4
2023-04-01T11:55:44.088Z,7.6
2023-04-01T12:00:44.118Z,7.7
2023-04-01T12:05:44.106Z,8.0
2023-04-01T12:10:44.093Z,8.2
2023-04-01T12:15:44.103Z,8.6
2023-04-01T12:20:44.113Z,8.4
2023-04-01T12:25:44.111Z,11.3
2023-04-01T12:30:44.276Z,9.3
2023-04-01T12:35:44.137Z,7.5
2023-04-01T12:40:44.136Z,8.6
2023-04-01T12:45:44.136Z,6.8
2023-04-01T12:50:44.131Z,5.8
2023-04-01T12:55:44.137Z,4.9
2023-04-01T13:00:45.201Z,5.5
2023-04-01T13:05:44.168Z,6.6
2023-04-01T13:10:44.138Z,4.7
2023-04-01T13:15:44.169Z,5.6
2023-04-01T13:20:44.167Z,4.9
2023-04-01T13:25:44.149Z,4.4
2023-04-01T13:30:44.154Z,4.6
2023-04-01T13:35:44.211Z,5.2
2023-04-01T13:40:55.780Z,6.6
2023-04-01T13:50:44.502Z,5.4
2023-04-01T13:55:44.210Z,6.4
2023-04-01T14:00:44.551Z,5.9
2023-04-01T14:10:44.167Z,6.9
2023-04-01T14:15:44.216Z,6.0
2023-04-01T14:20:44.181Z,5.8
2023-04-01T14:25:44.296Z,5.4
2023-04-01T14:30:44.175Z,5.6
2023-04-01T14:35:44.235Z,5.5
2023-04-01T14:40:44.196Z,6.5
2023-04-01T14:45:44.211Z,6.6
2023-04-01T14:50:44.299Z,6.6
2023-04-01T14:55:44.215Z,7.1
2023-04-01T15:00:44.195Z,8.5
2023-04-01T15:05:44.429Z,8.3
2023-04-01T15:10:44.228Z,8.2
2023-04-01T15:15:44.227Z,8.7
2023-04-01T15:20:44.218Z,7.6
2023-04-01T15:25:44.215Z,8.7
2023-04-01T15:30:44.218Z,7.9
2023-04-01T15:35:44.256Z,7.1
2023-04-01T15:40:44.222Z,6.9
2023-04-01T15:45:44.225Z,8.0
2023-04-01T15:55:44.245Z,8.7
2023-04-01T16:00:44.234Z,8.5
2023-04-01T16:05:44.237Z,9.8
2023-04-01T16:10:44.324Z,7.5
2023-04-01T16:15:44.234Z,7.1
2023-04-01T16:20:44.239Z,10.5
2023-04-01T16:25:44.250Z,8.3
2023-04-01T16:30:44.244Z,7.9
2023-04-01T16:35:44.277Z,8.1
2023-04-01T16:40:44.474Z,8.6
2023-04-01T16:45:44.274Z,8.1
2023-04-01T16:50:44.279Z,8.3
2023-04-01T16:55:44.356Z,7.8
2023-04-01T17:00:44.263Z,8.6
2023-04-01T17:05:44.396Z,7.7
2023-04-01T17:10:44.263Z,7.8
2023-04-01T17:15:44.359Z,7.5
2023-04-01T17:20:44.275Z,4.3
2023-04-01T17:25:44.282Z,3.4
2023-04-01T17:30:44.284Z,2.1
2023-04-01T17:35:44.334Z,2.2
2023-04-01T17:40:44.281Z,2.3
2023-04-01T17:45:44.282Z,2.8
2023-04-01T17:50:44.301Z,3.0
2023-04-01T17:55:44.287Z,3.3
2023-04-01T18:00:54.486Z,2.7
2023-04-01T18:05:44.308Z,2.9
2023-04-01T18:10:44.316Z,2.8
2023-04-01T18:15:44.300Z,3.3
2023-04-01T18:20:44.299Z,4.0
2023-04-01T18:25:44.306Z,3.4
2023-04-01T18:30:44.306Z,5.5
2023-04-01T18:35:44.350Z,5.0
2023-04-01T18:40:44.447Z,4.0
2023-04-01T18:45:44.348Z,4.8
2023-04-01T18:50:44.411Z,5.1
2023-04-01T18:55:44.424Z,4.8
2023-04-01T19:00:44.423Z,5.7
2023-04-01T19:05:44.316Z,6.8
2023-04-01T19:10:44.321Z,5.9
2023-04-01T19:15:44.379Z,6.2
2023-04-01T19:20:44.493Z,7.0
2023-04-01T19:25:44.429Z,6.9
2023-04-01T19:30:44.431Z,7.7
2023-04-01T19:35:44.564Z,7.7
2023-04-01T19:40:44.451Z,7.4
2023-04-01T19:45:44.458Z,7.6
2023-04-01T19:50:44.480Z,7.2
2023-04-01T19:55:44.448Z,6.9
2023-04-01T20:00:44.455Z,5.9
2023-04-01T20:05:44.549Z,7.4
2023-04-01T20:10:44.462Z,6.3
2023-04-01T20:15:44.461Z,7.3
2023-04-01T20:20:44.481Z,7.8
2023-04-01T20:25:44.467Z,8.3
2023-04-01T20:30:44.471Z,7.9
2023-04-01T20:35:44.498Z,6.6
2023-04-01T20:40:44.465Z,6.8
2023-04-01T20:45:44.524Z,6.4
2023-04-01T20:50:44.480Z,5.2
2023-04-01T20:55:44.480Z,6.5
2023-04-01T21:00:44.486Z,8.4
2023-04-01T21:05:44.496Z,7.2
2023-04-01T21:10:44.492Z,7.6
2023-04-01T21:15:44.566Z,6.3
2023-04-01T21:20:44.500Z,7.2
2023-04-01T21:25:44.494Z,8.0
2023-04-01T21:30:44.496Z,8.1
2023-04-01T21:35:44.517Z,8.4
2023-04-01T21:40:44.500Z,9.6
2023-04-01T21:45:44.531Z,8.0
2023-04-01T21:50:44.512Z,7.4
2023-04-01T21:55:44.524Z,7.3
2023-04-01T22:00:44.503Z,7.7
2023-04-01T22:05:44.573Z,7.8
2023-04-01T22:10:44.520Z,7.3
2023-04-01T22:15:44.521Z,7.6
2023-04-01T22:20:44.514Z,7.4
2023-04-01T22:25:44.545Z,6.2
2023-04-01T22:30:44.527Z,6.0
2023-04-01T22:35:44.570Z,6.5
2023-04-01T22:40:44.524Z,6.7
2023-04-01T22:45:44.655Z,5.9
2023-04-01T22:50:44.534Z,6.0
2023-04-01T22:55:52.688Z,5.9
2023-04-01T23:00:44.538Z,5.7
2023-04-01T23:05:44.541Z,5.8
2023-04-01T23:10:44.556Z,6.5
2023-04-01T23:20:44.557Z,7.6
2023-04-01T23:25:44.561Z,6.1
2023-04-01T23:30:44.550Z,6.1
2023-04-01T23:35:44.576Z,6.0
2023-04-01T23:40:44.562Z,5.1
2023-04-01T23:45:44.583Z,5.9
2023-04-01T23:50:44.560Z,6.4
2023-04-01T23:55:44.571Z,7.2
